createdAt,value
2017-09-14T00:00:53.226Z,11.40
2017-09-14T00:03:20.747Z,11.40
2017-09-14T00:05:48.282Z,11.50
2017-09-14T00:08:15.798Z,11.50
2017-09-14T00:10:44.107Z,11.50
2017-09-14T00:13:11.623Z,11.40
2017-09-14T00:15:39.164Z,11.50
2017-09-14T00:18:06.682Z,11.50
2017-09-14T00:20:34.217Z,11.50
2017-09-14T00:23:02.509Z,11.50
2017-09-14T00:25:30.047Z,11.50
2017-09-14T00:27:58.327Z,11.50
2017-09-14T00:30:26.631Z,11.50
2017-09-14T00:32:54.152Z,11.50
2017-09-14T00:35:21.697Z,11.50
2017-09-14T00:37:49.219Z,11.60
2017-09-14T00:40:16.758Z,11.60
2017-09-14T00:42:44.277Z,11.60
2017-09-14T00:45:11.810Z,11.50
2017-09-14T00:47:39.323Z,11.50
2017-09-14T00:50:06.863Z,11.60
2017-09-14T00:52:35.147Z,11.60
2017-09-14T00:55:02.682Z,11.60
2017-09-14T00:57:30.203Z,11.60
2017-09-14T00:59:57.747Z,11.60
2017-09-14T01:02:25.278Z,11.60
2017-09-14T01:04:53.571Z,11.60
2017-09-14T01:07:21.115Z,11.60
2017-09-14T01:09:49.406Z,11.60
2017-09-14T01:12:16.946Z,11.60
2017-09-14T01:15:03.087Z,11.60
2017-09-14T01:17:30.607Z,11.60
2017-09-14T01:19:58.890Z,11.60
2017-09-14T01:22:26.434Z,11.60
2017-09-14T01:24:54.723Z,11.60
2017-09-14T01:27:23.035Z,11.60
2017-09-14T01:29:50.551Z,11.70
2017-09-14T01:32:18.854Z,11.70
2017-09-14T01:34:47.142Z,11.70
2017-09-14T01:37:15.441Z,11.60
2017-09-14T01:39:42.964Z,11.70
2017-09-14T01:42:10.498Z,11.70
2017-09-14T01:44:38.018Z,11.70
2017-09-14T01:47:05.556Z,11.70
2017-09-14T01:49:33.847Z,11.70
2017-09-14T01:52:01.387Z,11.70
2017-09-14T01:54:29.675Z,11.70
2017-09-14T01:56:57.213Z,11.70
2017-09-14T01:59:24.735Z,11.70
2017-09-14T02:01:52.283Z,11.70
2017-09-14T02:04:19.798Z,11.70
2017-09-14T02:06:48.103Z,11.70
2017-09-14T02:09:15.627Z,11.70
2017-09-14T02:11:43.164Z,11.60
2017-09-14T02:14:10.678Z,11.60
2017-09-14T02:16:38.214Z,11.50
2017-09-14T02:19:06.556Z,11.50
2017-09-14T02:21:34.094Z,11.50
2017-09-14T02:24:01.619Z,11.50
2017-09-14T02:26:29.928Z,11.50
2017-09-14T02:28:57.447Z,11.50
2017-09-14T02:31:25.761Z,11.50
2017-09-14T02:33:53.273Z,11.50
2017-09-14T02:36:20.811Z,11.50
2017-09-14T02:38:48.335Z,11.50
2017-09-14T02:41:15.870Z,11.50
2017-09-14T02:43:44.159Z,11.50
2017-09-14T02:46:11.697Z,11.50
2017-09-14T02:48:39.215Z,11.50
2017-09-14T02:51:06.756Z,11.50
2017-09-14T02:53:35.052Z,11.50
2017-09-14T02:56:02.601Z,11.50
2017-09-14T02:58:30.887Z,11.50
2017-09-14T03:00:58.441Z,11.50
2017-09-14T03:03:26.726Z,11.60
2017-09-14T03:05:54.263Z,11.50
2017-09-14T03:08:22.555Z,11.60
2017-09-14T03:10:50.858Z,11.60
2017-09-14T03:13:18.381Z,11.60
2017-09-14T03:15:46.672Z,11.60
2017-09-14T03:18:14.975Z,11.60
2017-09-14T03:20:42.491Z,11.60
2017-09-14T03:23:10.029Z,11.60
2017-09-14T03:25:37.545Z,11.60
2017-09-14T03:28:05.083Z,11.60
2017-09-14T03:30:33.369Z,11.60
2017-09-14T03:33:00.912Z,11.60
2017-09-14T03:35:29.193Z,11.60
2017-09-14T03:37:57.508Z,11.60
2017-09-14T03:40:25.029Z,11.50
2017-09-14T03:42:52.563Z,11.60
2017-09-14T03:45:20.843Z,11.50
2017-09-14T03:47:49.154Z,11.50
2017-09-14T03:50:16.679Z,11.40
2017-09-14T03:52:44.992Z,11.40
2017-09-14T03:55:12.507Z,11.30
2017-09-14T03:57:40.816Z,11.30
2017-09-14T04:00:08.339Z,11.30
2017-09-14T04:02:36.643Z,11.30
2017-09-14T04:05:04.166Z,11.30
2017-09-14T04:07:31.703Z,11.30
2017-09-14T04:09:59.222Z,11.30
2017-09-14T04:12:26.772Z,11.20
2017-09-14T04:14:55.070Z,11.20
2017-09-14T04:17:23.355Z,11.20
2017-09-14T04:19:50.896Z,11.20
2017-09-14T04:22:19.183Z,11.20
2017-09-14T04:24:47.495Z,11.20
2017-09-14T04:27:15.022Z,11.20
2017-09-14T04:29:43.323Z,11.10
2017-09-14T04:32:10.851Z,11.10
2017-09-14T04:34:39.160Z,11.00
2017-09-14T04:37:06.687Z,11.00
2017-09-14T04:39:34.990Z,11.00
2017-09-14T04:42:02.516Z,11.00
2017-09-14T04:44:30.073Z,11.00
2017-09-14T04:46:57.675Z,11.00
2017-09-14T04:49:25.195Z,10.90
2017-09-14T04:51:52.734Z,10.90
2017-09-14T04:54:20.265Z,11.00
2017-09-14T04:56:47.812Z,11.00
2017-09-14T04:59:15.337Z,11.00
2017-09-14T05:01:42.877Z,11.00
2017-09-14T05:04:10.408Z,11.10
2017-09-14T05:06:37.947Z,11.10
2017-09-14T05:09:05.467Z,11.10
2017-09-14T05:11:33.014Z,11.10
2017-09-14T05:14:00.549Z,11.10
2017-09-14T05:16:28.091Z,11.10
2017-09-14T05:18:55.607Z,11.10
2017-09-14T05:21:23.158Z,11.20
2017-09-14T05:23:50.686Z,11.20
2017-09-14T05:26:18.207Z,11.20
2017-09-14T05:28:46.512Z,11.20
2017-09-14T05:31:14.030Z,11.10
2017-09-14T05:33:42.343Z,11.20
2017-09-14T05:36:09.864Z,11.20
2017-09-14T05:38:37.406Z,11.20
2017-09-14T05:41:04.923Z,11.20
2017-09-14T05:43:32.454Z,11.20
2017-09-14T05:46:00.738Z,11.10
2017-09-14T05:48:29.047Z,11.10
2017-09-14T05:50:56.568Z,11.10
2017-09-14T05:53:24.108Z,11.10
2017-09-14T05:55:51.632Z,11.10
2017-09-14T05:58:19.189Z,11.10
2017-09-14T06:00:46.714Z,11.00
2017-09-14T06:03:14.266Z,11.00
2017-09-14T06:05:41.795Z,11.00
2017-09-14T06:08:09.340Z,11.00
2017-09-14T06:10:36.864Z,11.00
2017-09-14T06:13:05.166Z,11.00
2017-09-14T06:15:32.683Z,10.90
2017-09-14T06:18:00.218Z,11.00
2017-09-14T06:20:27.734Z,11.00
2017-09-14T06:22:55.280Z,11.00
2017-09-14T06:25:22.803Z,11.00
2017-09-14T06:27:50.348Z,11.00
2017-09-14T06:30:17.867Z,11.00
2017-09-14T06:32:45.402Z,11.00
2017-09-14T06:35:13.684Z,11.00
2017-09-14T06:37:41.982Z,11.00
2017-09-14T06:40:09.499Z,11.00
2017-09-14T06:42:37.034Z,11.00
2017-09-14T06:45:04.568Z,11.10
2017-09-14T06:47:32.108Z,11.10
2017-09-14T06:49:59.636Z,11.10
2017-09-14T06:52:27.176Z,11.10
2017-09-14T06:54:54.696Z,11.00
2017-09-14T06:57:22.230Z,11.10
2017-09-14T06:59:50.523Z,11.00
2017-09-14T07:02:18.825Z,11.00
2017-09-14T07:04:46.343Z,11.00
2017-09-14T07:07:14.652Z,11.00
2017-09-14T07:09:42.177Z,11.00
2017-09-14T07:12:09.720Z,11.00
2017-09-14T07:14:37.244Z,11.00
2017-09-14T07:17:04.778Z,11.00
2017-09-14T07:19:32.295Z,11.00
2017-09-14T07:21:59.835Z,11.10
2017-09-14T07:24:27.356Z,11.00
2017-09-14T07:26:54.881Z,11.00
2017-09-14T07:29:22.413Z,11.00
2017-09-14T07:31:49.930Z,10.90
2017-09-14T07:34:17.463Z,10.90
2017-09-14T07:36:44.978Z,10.90
2017-09-14T07:39:12.519Z,11.00
2017-09-14T07:41:40.802Z,10.90
2017-09-14T07:44:09.102Z,10.90
2017-09-14T07:46:36.627Z,10.90
2017-09-14T07:49:04.163Z,10.90
2017-09-14T07:51:31.687Z,10.90
2017-09-14T07:53:59.231Z,10.90
2017-09-14T07:56:26.748Z,10.90
2017-09-14T07:58:54.291Z,10.90
2017-09-14T08:01:21.815Z,10.90
2017-09-14T08:03:49.351Z,10.80
2017-09-14T08:06:17.642Z,10.80
2017-09-14T08:08:45.188Z,10.70
2017-09-14T08:11:12.712Z,10.80
2017-09-14T08:13:40.255Z,10.70
2017-09-14T08:16:08.544Z,10.70
2017-09-14T08:18:36.080Z,10.70
2017-09-14T08:21:04.367Z,10.70
2017-09-14T08:23:32.679Z,10.70
2017-09-14T08:26:00.198Z,10.70
2017-09-14T08:28:28.511Z,10.70
2017-09-14T08:30:56.027Z,10.70
2017-09-14T08:33:23.569Z,10.70
2017-09-14T08:35:51.099Z,10.70
2017-09-14T08:38:18.643Z,10.70
2017-09-14T08:40:46.164Z,10.70
2017-09-14T08:43:13.701Z,10.70
2017-09-14T08:45:41.227Z,10.60
2017-09-14T08:48:08.771Z,10.60
2017-09-14T08:50:36.291Z,10.60
2017-09-14T08:53:03.832Z,10.60
2017-09-14T08:55:31.364Z,10.60
2017-09-14T08:57:58.901Z,10.60
2017-09-14T09:00:27.187Z,10.70
2017-09-14T09:02:54.726Z,10.70
2017-09-14T09:05:23.023Z,10.70
2017-09-14T09:07:50.575Z,10.70
2017-09-14T09:10:18.101Z,10.70
2017-09-14T09:12:45.638Z,10.70
2017-09-14T09:15:13.170Z,10.70
2017-09-14T09:17:40.704Z,10.80
2017-09-14T09:20:08.224Z,10.80
2017-09-14T09:22:35.764Z,10.80
2017-09-14T09:25:03.283Z,10.80
2017-09-14T09:27:30.836Z,10.80
2017-09-14T09:29:59.119Z,10.90
2017-09-14T09:32:26.644Z,10.80
2017-09-14T09:34:54.188Z,10.90
2017-09-14T09:37:21.705Z,10.90
2017-09-14T09:39:49.242Z,10.90
2017-09-14T09:42:16.760Z,10.90
2017-09-14T09:44:44.307Z,11.00
2017-09-14T09:47:11.840Z,10.90
2017-09-14T09:49:39.383Z,10.90
2017-09-14T09:52:07.675Z,10.90
2017-09-14T09:54:35.979Z,10.90
2017-09-14T09:57:03.497Z,10.80
2017-09-14T09:59:31.806Z,10.90
2017-09-14T10:01:59.323Z,10.80
2017-09-14T10:04:26.863Z,10.90
2017-09-14T10:06:54.380Z,10.90
2017-09-14T10:09:21.920Z,10.80
2017-09-14T10:11:50.207Z,10.70
2017-09-14T10:14:17.751Z,10.70
2017-09-14T10:16:45.276Z,10.70
2017-09-14T10:19:12.815Z,10.70
2017-09-14T10:21:40.338Z,10.60
2017-09-14T10:24:07.880Z,10.60
2017-09-14T10:26:35.398Z,10.70
2017-09-14T10:29:02.944Z,10.60
2017-09-14T10:31:31.231Z,10.70
2017-09-14T10:33:58.772Z,10.70
2017-09-14T10:36:27.063Z,10.80
2017-09-14T10:38:55.374Z,10.70
2017-09-14T10:41:22.890Z,10.70
2017-09-14T10:43:51.195Z,10.70
2017-09-14T10:46:18.710Z,10.70
2017-09-14T10:48:46.243Z,10.80
2017-09-14T10:51:13.758Z,11.00
2017-09-14T10:53:42.059Z,10.90
2017-09-14T10:56:09.579Z,10.90
2017-09-14T10:58:37.888Z,10.80
2017-09-14T11:01:05.412Z,10.80
2017-09-14T11:03:32.950Z,10.80
2017-09-14T11:06:00.476Z,10.80
2017-09-14T11:08:28.016Z,10.80
2017-09-14T11:10:55.539Z,10.80
2017-09-14T11:13:23.078Z,10.80
2017-09-14T11:15:50.594Z,10.70
2017-09-14T11:18:18.136Z,10.70
2017-09-14T11:20:46.431Z,10.80
2017-09-14T11:23:13.970Z,10.80
2017-09-14T11:25:42.262Z,11.00
2017-09-14T11:28:10.570Z,11.10
2017-09-14T11:30:38.088Z,11.10
2017-09-14T11:33:06.378Z,11.10
2017-09-14T11:35:34.687Z,11.00
2017-09-14T11:38:02.971Z,11.00
2017-09-14T11:40:30.510Z,11.00
2017-09-14T11:42:58.029Z,11.20
2017-09-14T11:45:25.567Z,11.30
2017-09-14T11:47:53.855Z,11.40
2017-09-14T11:50:22.160Z,11.60
2017-09-14T11:52:49.684Z,11.60
2017-09-14T11:55:17.987Z,11.80
2017-09-14T11:57:46.355Z,11.80
2017-09-14T12:00:14.656Z,11.70
2017-09-14T12:02:42.174Z,11.70
2017-09-14T12:05:10.480Z,12.00
2017-09-14T12:07:38.010Z,12.00
2017-09-14T12:10:06.329Z,12.80
2017-09-14T12:12:33.851Z,12.80
2017-09-14T12:15:02.164Z,13.20
2017-09-14T12:17:29.697Z,13.10
2017-09-14T12:19:58.010Z,13.10
2017-09-14T12:22:25.531Z,13.10
2017-09-14T12:24:53.839Z,12.60
2017-09-14T12:27:21.359Z,12.60
2017-09-14T12:29:49.668Z,12.20
2017-09-14T12:32:17.186Z,12.20
2017-09-14T12:34:44.757Z,12.10
2017-09-14T12:37:12.280Z,12.10
2017-09-14T12:39:40.604Z,12.30
2017-09-14T12:42:08.126Z,12.30
2017-09-14T12:44:36.436Z,12.60
2017-09-14T12:47:03.961Z,12.60
2017-09-14T12:49:32.263Z,12.20
2017-09-14T12:51:59.782Z,12.20
2017-09-14T12:54:27.318Z,12.10
2017-09-14T12:56:54.834Z,11.90
2017-09-14T12:59:22.375Z,11.50
2017-09-14T13:01:50.668Z,11.20
2017-09-14T13:04:18.216Z,11.10
2017-09-14T13:06:46.506Z,11.00
2017-09-14T13:09:14.051Z,11.00
2017-09-14T13:11:42.344Z,11.10
2017-09-14T13:14:09.882Z,11.10
2017-09-14T13:16:38.166Z,11.30
2017-09-14T13:19:06.471Z,11.40
2017-09-14T13:21:33.986Z,11.40
2017-09-14T13:24:01.529Z,11.50
2017-09-14T13:26:29.055Z,11.50
2017-09-14T13:28:56.590Z,11.50
2017-09-14T13:31:24.875Z,11.40
2017-09-14T13:33:52.415Z,11.40
2017-09-14T13:36:20.711Z,11.10
2017-09-14T13:38:48.252Z,11.10
2017-09-14T13:41:16.543Z,10.80
2017-09-14T13:43:44.086Z,10.80
2017-09-14T13:46:12.376Z,10.60
2017-09-14T13:48:40.688Z,10.50
2017-09-14T13:51:08.239Z,10.50
2017-09-14T13:53:35.771Z,10.30
2017-09-14T13:56:04.083Z,10.40
2017-09-14T13:58:31.604Z,10.40
2017-09-14T14:00:59.913Z,10.70
2017-09-14T14:03:27.436Z,10.70
2017-09-14T14:05:55.753Z,10.90
2017-09-14T14:08:23.275Z,10.90
2017-09-14T14:10:51.575Z,11.10
2017-09-14T14:13:19.100Z,11.10
2017-09-14T14:15:46.642Z,11.10
2017-09-14T14:18:14.158Z,11.10
2017-09-14T14:20:42.469Z,11.20
2017-09-14T14:23:09.999Z,11.20
2017-09-14T14:25:38.308Z,11.10
2017-09-14T14:28:05.836Z,11.10
2017-09-14T14:30:34.152Z,11.00
2017-09-14T14:33:01.685Z,11.00
2017-09-14T14:35:29.230Z,11.00
2017-09-14T14:37:57.519Z,11.10
2017-09-14T14:40:25.828Z,11.20
2017-09-14T14:42:53.344Z,11.20
2017-09-14T14:45:21.649Z,11.30
2017-09-14T14:47:49.178Z,11.30
2017-09-14T14:50:17.487Z,11.50
2017-09-14T14:52:45.012Z,11.50
2017-09-14T14:55:13.312Z,11.50
2017-09-14T14:57:40.839Z,11.50
2017-09-14T15:00:09.152Z,11.50
2017-09-14T15:02:36.676Z,11.50
2017-09-14T15:05:04.987Z,11.40
2017-09-14T15:07:32.506Z,11.40
2017-09-14T15:10:00.051Z,11.40
2017-09-14T15:12:27.577Z,11.40
2017-09-14T15:14:55.116Z,11.40
2017-09-14T15:17:22.642Z,11.50
2017-09-14T15:19:50.186Z,11.70
2017-09-14T15:22:17.711Z,11.90
2017-09-14T15:24:45.256Z,12.00
2017-09-14T15:27:12.786Z,11.60
2017-09-14T15:29:41.096Z,11.60
2017-09-14T15:32:08.623Z,11.60
2017-09-14T15:34:36.167Z,11.50
2017-09-14T15:37:03.691Z,11.60
2017-09-14T15:39:36.858Z,11.50
2017-09-14T15:42:04.382Z,11.60
2017-09-14T15:44:37.644Z,11.80
2017-09-14T15:47:05.168Z,11.80
2017-09-14T15:52:29.265Z,12.10
2017-09-14T15:54:56.812Z,12.10
2017-09-14T15:57:24.336Z,12.10
2017-09-14T15:59:51.892Z,12.10
2017-09-14T16:02:19.416Z,12.00
2017-09-14T16:04:46.954Z,12.00
2017-09-14T16:07:14.482Z,12.10
2017-09-14T16:09:42.034Z,12.10
2017-09-14T16:12:09.553Z,12.00
2017-09-14T16:14:37.071Z,11.80
2017-09-14T16:17:04.615Z,11.60
2017-09-14T16:19:32.135Z,11.50
2017-09-14T16:21:59.679Z,11.40
2017-09-14T16:24:27.203Z,11.40
2017-09-14T16:26:54.742Z,11.40
2017-09-14T16:29:22.263Z,11.30
2017-09-14T16:31:49.814Z,11.20
2017-09-14T16:34:17.340Z,11.10
2017-09-14T16:36:44.891Z,11.20
2017-09-14T16:39:12.420Z,11.10
2017-09-14T16:41:40.003Z,11.10
2017-09-14T16:44:07.522Z,10.90
2017-09-14T16:46:35.069Z,10.80
2017-09-14T16:49:02.591Z,10.70
2017-09-14T16:51:30.106Z,10.70
2017-09-14T16:53:57.651Z,10.60
2017-09-14T16:56:25.176Z,10.60
2017-09-14T16:58:53.483Z,10.60
2017-09-14T17:01:21.012Z,10.60
2017-09-14T17:03:48.552Z,10.60
2017-09-14T17:06:16.072Z,10.50
2017-09-14T17:08:43.618Z,10.50
2017-09-14T17:11:11.149Z,10.50
2017-09-14T17:13:39.460Z,10.50
2017-09-14T17:16:06.983Z,10.50
2017-09-14T17:18:34.530Z,10.50
2017-09-14T17:21:02.050Z,10.60
2017-09-14T17:23:29.575Z,10.50
2017-09-14T17:25:57.886Z,10.50
2017-09-14T17:28:26.175Z,10.50
2017-09-14T17:30:53.743Z,10.50
2017-09-14T17:33:21.262Z,10.50
2017-09-14T17:35:48.816Z,10.50
2017-09-14T17:38:16.340Z,10.50
2017-09-14T17:40:43.888Z,10.50
2017-09-14T17:43:11.411Z,10.40
2017-09-14T17:45:38.950Z,10.40
2017-09-14T17:48:07.247Z,10.50
2017-09-14T17:50:34.787Z,10.40
2017-09-14T17:53:03.076Z,10.50
2017-09-14T17:55:31.389Z,10.50
2017-09-14T17:57:58.909Z,10.50
2017-09-14T18:00:27.210Z,10.40
2017-09-14T18:02:54.727Z,10.40
2017-09-14T18:05:22.268Z,10.40
2017-09-14T18:07:49.783Z,10.30
2017-09-14T18:10:17.329Z,10.20
2017-09-14T18:12:45.620Z,10.20
2017-09-14T18:15:13.134Z,10.10
2017-09-14T18:17:40.701Z,10.20
2017-09-14T18:20:08.215Z,10.10
2017-09-14T18:22:35.754Z,10.10
2017-09-14T18:25:03.274Z,10.00
2017-09-14T18:27:31.592Z,10.00
2017-09-14T18:29:59.107Z,9.90
2017-09-14T18:32:27.411Z,9.90
2017-09-14T18:34:54.924Z,9.80
2017-09-14T18:37:22.472Z,9.80
2017-09-14T18:39:50.000Z,9.80
2017-09-14T18:42:17.541Z,9.70
2017-09-14T18:44:45.825Z,9.60
2017-09-14T18:47:13.358Z,9.60
2017-09-14T18:49:40.881Z,9.60
2017-09-14T18:52:08.426Z,9.60
2017-09-14T18:54:35.948Z,9.60
2017-09-14T18:57:04.250Z,9.50
2017-09-14T18:59:31.763Z,9.40
2017-09-14T19:01:59.314Z,9.50
2017-09-14T19:04:26.830Z,9.40
2017-09-14T19:06:55.136Z,9.50
2017-09-14T19:09:22.662Z,9.40
2017-09-14T19:11:50.967Z,9.50
2017-09-14T19:14:18.492Z,9.50
2017-09-14T19:16:46.797Z,9.50
2017-09-14T19:19:14.319Z,9.50
2017-09-14T19:21:41.851Z,9.50
2017-09-14T19:24:10.138Z,9.50
2017-09-14T19:26:37.675Z,9.40
2017-09-14T19:29:05.189Z,9.50
2017-09-14T19:31:32.732Z,9.40
2017-09-14T19:34:00.255Z,9.50
2017-09-14T19:36:27.798Z,9.50
2017-09-14T19:38:55.327Z,9.50
2017-09-14T19:41:22.864Z,9.50
2017-09-14T19:43:50.387Z,9.50
2017-09-14T19:46:17.926Z,9.50
2017-09-14T19:48:45.447Z,9.50
2017-09-14T19:51:13.043Z,9.50
2017-09-14T19:53:40.571Z,9.50
2017-09-14T19:56:08.108Z,9.40
2017-09-14T19:58:36.409Z,9.50
2017-09-14T20:01:03.936Z,9.40
2017-09-14T20:03:31.488Z,9.50
2017-09-14T20:05:59.006Z,9.40
2017-09-14T20:08:26.543Z,9.40
2017-09-14T20:10:54.060Z,9.40
2017-09-14T20:13:21.604Z,9.40
2017-09-14T20:15:49.125Z,9.40
2017-09-14T20:18:16.676Z,9.40
2017-09-14T20:20:44.195Z,9.50
2017-09-14T20:23:11.745Z,9.40
2017-09-14T20:25:39.281Z,9.50
2017-09-14T20:28:06.835Z,9.50
2017-09-14T20:30:34.356Z,9.40
2017-09-14T20:33:01.871Z,9.50
2017-09-14T20:35:30.173Z,9.50
2017-09-14T20:37:57.690Z,9.50
2017-09-14T20:40:25.227Z,9.50
2017-09-14T20:42:52.750Z,9.50
2017-09-14T20:45:20.293Z,9.50
2017-09-14T20:47:47.814Z,9.50
2017-09-14T20:50:15.359Z,9.50
2017-09-14T20:52:43.643Z,9.50
2017-09-14T20:55:11.208Z,9.50
2017-09-14T20:57:38.735Z,9.50
2017-09-14T21:00:06.261Z,9.50
2017-09-14T21:02:34.570Z,9.50
2017-09-14T21:05:02.092Z,9.50
2017-09-14T21:07:29.644Z,9.50
2017-09-14T21:09:57.930Z,9.50
2017-09-14T21:12:25.482Z,9.50
2017-09-14T21:14:53.765Z,9.50
2017-09-14T21:17:22.075Z,9.50
2017-09-14T21:19:49.599Z,9.50
2017-09-14T21:22:17.912Z,9.50
2017-09-14T21:24:45.427Z,9.50
2017-09-14T21:27:13.747Z,9.60
2017-09-14T21:29:41.266Z,9.60
2017-09-14T21:32:09.552Z,9.60
2017-09-14T21:34:37.855Z,9.60
2017-09-14T21:37:05.376Z,9.60
2017-09-14T21:39:33.686Z,9.60
2017-09-14T21:42:01.203Z,9.60
2017-09-14T21:44:28.746Z,9.60
2017-09-14T21:46:56.266Z,9.60
2017-09-14T21:49:23.800Z,9.60
2017-09-14T21:51:52.077Z,9.70
2017-09-14T21:54:20.380Z,9.70
2017-09-14T21:56:47.895Z,9.60
2017-09-14T21:59:15.434Z,9.60
2017-09-14T22:01:43.715Z,9.60
2017-09-14T22:04:12.071Z,9.70
2017-09-14T22:06:39.596Z,9.70
2017-09-14T22:09:07.135Z,9.70
2017-09-14T22:11:34.691Z,9.60
2017-09-14T22:14:02.238Z,9.70
2017-09-14T22:16:29.771Z,9.70
2017-09-14T22:18:57.312Z,9.70
2017-09-14T22:21:24.840Z,9.60
2017-09-14T22:23:52.383Z,9.70
2017-09-14T22:26:19.901Z,9.70
2017-09-14T22:28:47.443Z,9.70
2017-09-14T22:31:15.755Z,9.70
2017-09-14T22:33:43.298Z,9.70
2017-09-14T22:36:10.818Z,9.70
2017-09-14T22:38:38.359Z,9.70
2017-09-14T22:41:05.887Z,9.70
2017-09-14T22:43:33.431Z,9.70
2017-09-14T22:46:00.958Z,9.70
2017-09-14T22:48:28.489Z,9.70
2017-09-14T22:50:56.012Z,9.70
2017-09-14T22:53:23.557Z,9.70
2017-09-14T22:55:51.834Z,9.70
2017-09-14T22:58:20.135Z,9.70
2017-09-14T23:00:47.658Z,9.70
2017-09-14T23:03:15.192Z,9.70
2017-09-14T23:05:42.723Z,9.70
2017-09-14T23:08:10.260Z,9.70
2017-09-14T23:10:37.774Z,9.70
2017-09-14T23:13:05.311Z,9.80
2017-09-14T23:15:32.826Z,9.80
2017-09-14T23:18:01.138Z,9.80
2017-09-14T23:20:28.656Z,9.80
2017-09-14T23:22:56.172Z,9.80
2017-09-14T23:25:23.711Z,9.80
2017-09-14T23:27:51.248Z,9.80
2017-09-14T23:30:18.781Z,9.80
2017-09-14T23:32:46.306Z,9.80
2017-09-14T23:35:13.844Z,9.80
2017-09-14T23:37:42.127Z,9.90
2017-09-14T23:40:10.431Z,9.90
2017-09-14T23:42:37.946Z,9.80
2017-09-14T23:45:05.478Z,9.90
2017-09-14T23:47:32.995Z,9.90
2017-09-14T23:50:00.533Z,9.90
2017-09-14T23:52:28.824Z,9.90
2017-09-14T23:54:57.132Z,9.90
2017-09-14T23:57:24.650Z,9.90
2017-09-14T23:59:52.965Z,10.00
